sensor_id;sensor_type;location;lat;lon;timestamp;pressure;altitude;pressure_sealevel;temperature;humidity
58534;BME280;44109;52.398;7.024;2023-01-28T00:00:20;102651.59;;;3.79;86.14
58534;BME280;44109;52.398;7.024;2023-01-28T00:02:48;102711.84;;;4.30;86.40
58534;BME280;44109;52.398;7.024;2023-01-28T00:05:15;102720.09;;;4.25;84.67
58534;BME280;44109;52.398;7.024;2023-01-28T00:07:43;102722.38;;;3.93;80.63
58534;BME280;44109;52.398;7.024;2023-01-28T00:10:11;102697.16;;;3.70;80.25
58534;BME280;44109;52.398;7.024;2023-01-28T00:12:39;102722.44;;;3.42;78.37
58534;BME280;44109;52.398;7.024;2023-01-28T00:15:07;102722.91;;;2.83;80.93
58534;BME280;44109;52.398;7.024;2023-01-28T00:17:36;102715.31;;;3.46;86.14
58534;BME280;44109;52.398;7.024;2023-01-28T00:20:05;102721.31;;;3.17;80.23
58534;BME280;44109;52.398;7.024;2023-01-28T00:22:33;102721.06;;;3.60;83.94
58534;BME280;44109;52.398;7.024;2023-01-28T00:25:01;102709.53;;;3.22;78.52
58534;BME280;44109;52.398;7.024;2023-01-28T00:27:28;102729.53;;;3.12;79.46
58534;BME280;44109;52.398;7.024;2023-01-28T00:29:56;102733.25;;;2.65;78.94
58534;BME280;44109;52.398;7.024;2023-01-28T00:32:23;102736.00;;;2.65;80.64
58534;BME280;44109;52.398;7.024;2023-01-28T00:34:53;102736.00;;;2.65;79.29
58534;BME280;44109;52.398;7.024;2023-01-28T00:37:20;102734.13;;;2.81;80.81
58534;BME280;44109;52.398;7.024;2023-01-28T00:39:48;102736.28;;;2.69;82.20
58534;BME280;44109;52.398;7.024;2023-01-28T00:42:16;102744.75;;;2.62;78.84
58534;BME280;44109;52.398;7.024;2023-01-28T00:44:44;102741.53;;;2.86;80.29
58534;BME280;44109;52.398;7.024;2023-01-28T00:47:11;102732.84;;;3.14;83.57
58534;BME280;44109;52.398;7.024;2023-01-28T00:49:39;102740.50;;;3.22;84.75
58534;BME280;44109;52.398;7.024;2023-01-28T00:52:08;102738.88;;;3.31;83.37
58534;BME280;44109;52.398;7.024;2023-01-28T00:54:35;102736.13;;;3.06;80.23
58534;BME280;44109;52.398;7.024;2023-01-28T00:57:03;102748.66;;;2.82;84.05
58534;BME280;44109;52.398;7.024;2023-01-28T00:59:32;102737.75;;;3.17;86.08
58534;BME280;44109;52.398;7.024;2023-01-28T01:01:59;102565.47;;;2.12;81.94
58534;BME280;44109;52.398;7.024;2023-01-28T01:04:37;102741.66;;;3.42;84.26
58534;BME280;44109;52.398;7.024;2023-01-28T01:07:05;102733.94;;;3.39;82.00
58534;BME280;44109;52.398;7.024;2023-01-28T01:09:34;102740.53;;;3.48;83.29
58534;BME280;44109;52.398;7.024;2023-01-28T01:12:02;102739.19;;;3.50;82.49
58534;BME280;44109;52.398;7.024;2023-01-28T01:14:29;102738.31;;;3.45;82.78
58534;BME280;44109;52.398;7.024;2023-01-28T01:16:59;102727.63;;;3.53;82.94
58534;BME280;44109;52.398;7.024;2023-01-28T01:19:27;102742.16;;;3.54;83.76
58534;BME280;44109;52.398;7.024;2023-01-28T01:21:55;102739.44;;;3.49;83.51
58534;BME280;44109;52.398;7.024;2023-01-28T01:24:23;102737.78;;;3.48;83.56
58534;BME280;44109;52.398;7.024;2023-01-28T01:26:56;102741.06;;;3.40;82.08
58534;BME280;44109;52.398;7.024;2023-01-28T01:29:23;102742.75;;;3.41;82.93
58534;BME280;44109;52.398;7.024;2023-01-28T01:31:51;102740.53;;;3.43;82.18
58534;BME280;44109;52.398;7.024;2023-01-28T01:34:20;102728.19;;;3.25;80.12
58534;BME280;44109;52.398;7.024;2023-01-28T01:36:48;102742.19;;;3.34;81.56
58534;BME280;44109;52.398;7.024;2023-01-28T01:39:15;102750.69;;;3.32;81.40
58534;BME280;44109;52.398;7.024;2023-01-28T01:41:43;102747.66;;;3.39;83.16
58534;BME280;44109;52.398;7.024;2023-01-28T01:47:20;102747.66;;;3.34;82.20
58534;BME280;44109;52.398;7.024;2023-01-28T01:49:51;102687.28;;;2.93;81.91
58534;BME280;44109;52.398;7.024;2023-01-28T01:52:23;102734.50;;;3.36;84.23
58534;BME280;44109;52.398;7.024;2023-01-28T01:55:00;102747.66;;;3.34;83.19
58534;BME280;44109;52.398;7.024;2023-01-28T01:57:35;102747.94;;;3.37;84.91
58534;BME280;44109;52.398;7.024;2023-01-28T02:00:06;102742.19;;;3.34;83.79
58534;BME280;44109;52.398;7.024;2023-01-28T02:02:37;102743.81;;;3.35;84.76
58534;BME280;44109;52.398;7.024;2023-01-28T02:05:08;102684.84;;;2.91;83.68
58534;BME280;44109;52.398;7.024;2023-01-28T02:07:39;102748.19;;;3.30;84.31
58534;BME280;44109;52.398;7.024;2023-01-28T02:10:10;102754.78;;;3.35;83.84
58534;BME280;44109;52.398;7.024;2023-01-28T02:12:42;102754.78;;;3.35;84.21
58534;BME280;44109;52.398;7.024;2023-01-28T02:15:17;102764.94;;;3.39;85.16
58534;BME280;44109;52.398;7.024;2023-01-28T02:17:49;102763.84;;;3.40;85.21
58534;BME280;44109;52.398;7.024;2023-01-28T02:20:21;102762.72;;;3.31;82.48
58534;BME280;44109;52.398;7.024;2023-01-28T02:23:14;102769.31;;;3.10;78.11
58534;BME280;44109;52.398;7.024;2023-01-28T02:26:08;102771.75;;;3.11;79.56
58534;BME280;44109;52.398;7.024;2023-01-28T02:28:53;102767.41;;;3.30;82.52
58534;BME280;44109;52.398;7.024;2023-01-28T02:31:30;102763.31;;;3.33;83.12
58534;BME280;44109;52.398;7.024;2023-01-28T02:34:07;102773.41;;;3.07;77.74
58534;BME280;44109;52.398;7.024;2023-01-28T02:36:48;102760.56;;;3.28;83.65
58534;BME280;44109;52.398;7.024;2023-01-28T02:39:22;102771.25;;;3.24;81.58
58534;BME280;44109;52.398;7.024;2023-01-28T02:41:56;102766.59;;;3.40;84.82
58534;BME280;44109;52.398;7.024;2023-01-28T02:44:29;102762.47;;;3.43;84.80
58534;BME280;44109;52.398;7.024;2023-01-28T02:46:58;102742.19;;;3.34;83.83
58534;BME280;44109;52.398;7.024;2023-01-28T02:49:45;102769.06;;;3.47;84.87
58534;BME280;44109;52.398;7.024;2023-01-28T02:52:34;102762.78;;;3.46;84.94
58534;BME280;44109;52.398;7.024;2023-01-28T02:55:43;102738.63;;;3.38;85.89
58534;BME280;44109;52.398;7.024;2023-01-28T02:58:24;102749.59;;;3.43;85.73
58534;BME280;44109;52.398;7.024;2023-01-28T03:01:04;102756.47;;;3.46;85.34
58534;BME280;44109;52.398;7.024;2023-01-28T03:03:49;102747.94;;;3.47;86.37
58534;BME280;44109;52.398;7.024;2023-01-28T03:06:27;102740.81;;;3.46;86.19
58534;BME280;44109;52.398;7.024;2023-01-28T03:09:02;102738.91;;;3.47;86.37
58534;BME280;44109;52.398;7.024;2023-01-28T03:11:55;102741.94;;;3.45;86.38
58534;BME280;44109;52.398;7.024;2023-01-28T03:14:45;102744.91;;;3.44;86.40
58534;BME280;44109;52.398;7.024;2023-01-28T03:17:40;102744.91;;;3.39;85.58
58534;BME280;44109;52.398;7.024;2023-01-28T03:20:33;102746.03;;;3.38;86.17
58534;BME280;44109;52.398;7.024;2023-01-28T03:23:27;102744.91;;;3.34;85.14
58534;BME280;44109;52.398;7.024;2023-01-28T03:26:16;102744.88;;;3.13;80.12
58534;BME280;44109;52.398;7.024;2023-01-28T03:29:09;102752.56;;;3.16;81.21
58534;BME280;44109;52.398;7.024;2023-01-28T03:31:58;102742.72;;;3.20;83.02
58534;BME280;44109;52.398;7.024;2023-01-28T03:34:46;102741.81;;;2.79;79.16
58534;BME280;44109;52.398;7.024;2023-01-28T03:37:32;102745.09;;;2.81;80.99
58534;BME280;44109;52.398;7.024;2023-01-28T03:40:02;102742.13;;;3.03;83.56
58534;BME280;44109;52.398;7.024;2023-01-28T03:42:31;102752.28;;;3.13;84.90
58534;BME280;44109;52.398;7.024;2023-01-28T03:44:59;102743.53;;;3.21;85.64
58534;BME280;44109;52.398;7.024;2023-01-28T03:47:30;102747.66;;;3.23;85.49
58534;BME280;44109;52.398;7.024;2023-01-28T03:50:00;102751.47;;;3.22;85.38
58534;BME280;44109;52.398;7.024;2023-01-28T03:52:29;102737.50;;;3.14;85.54
58534;BME280;44109;52.398;7.024;2023-01-28T03:54:58;102753.91;;;3.03;80.08
58534;BME280;44109;52.398;7.024;2023-01-28T03:57:27;102748.31;;;2.68;79.45
58534;BME280;44109;52.398;7.024;2023-01-28T03:59:56;102754.97;;;2.82;80.77
58534;BME280;44109;52.398;7.024;2023-01-28T04:02:24;102747.47;;;2.57;78.58
58534;BME280;44109;52.398;7.024;2023-01-28T04:04:52;102762.34;;;2.14;79.19
58534;BME280;44109;52.398;7.024;2023-01-28T04:07:22;102755.69;;;2.57;80.49
58534;BME280;44109;52.398;7.024;2023-01-28T04:09:49;102763.75;;;2.89;83.06
58534;BME280;44109;52.398;7.024;2023-01-28T04:12:17;102763.50;;;2.96;82.74
58534;BME280;44109;52.398;7.024;2023-01-28T04:14:44;102759.38;;;2.93;82.33
58534;BME280;44109;52.398;7.024;2023-01-28T04:17:12;102767.38;;;3.00;83.11
58534;BME280;44109;52.398;7.024;2023-01-28T04:19:40;102766.81;;;3.03;84.36
58534;BME280;44109;52.398;7.024;2023-01-28T04:22:09;102777.72;;;2.83;81.38
58534;BME280;44109;52.398;7.024;2023-01-28T04:24:39;102760.97;;;2.74;80.18
58534;BME280;44109;52.398;7.024;2023-01-28T04:27:06;102764.81;;;2.78;79.07
58534;BME280;44109;52.398;7.024;2023-01-28T04:29:34;102736.88;;;2.81;81.86
58534;BME280;44109;52.398;7.024;2023-01-28T04:32:01;102777.75;;;2.98;81.71
58534;BME280;44109;52.398;7.024;2023-01-28T04:34:29;102772.84;;;3.00;81.93
58534;BME280;44109;52.398;7.024;2023-01-28T04:36:57;102771.63;;;2.65;78.10
58534;BME280;44109;52.398;7.024;2023-01-28T04:39:24;102775.59;;;2.32;77.21
58534;BME280;44109;52.398;7.024;2023-01-28T04:41:53;102771.38;;;2.77;80.79
58534;BME280;44109;52.398;7.024;2023-01-28T04:44:21;102770.78;;;2.60;77.00
58534;BME280;44109;52.398;7.024;2023-01-28T04:46:49;102770.56;;;2.76;78.64
58534;BME280;44109;52.398;7.024;2023-01-28T04:49:16;102783.19;;;2.77;78.38
58534;BME280;44109;52.398;7.024;2023-01-28T04:51:44;102761.81;;;2.85;83.52
58534;BME280;44109;52.398;7.024;2023-01-28T04:54:12;102780.38;;;2.67;79.06
58534;BME280;44109;52.398;7.024;2023-01-28T04:56:39;102780.75;;;2.28;77.15
58534;BME280;44109;52.398;7.024;2023-01-28T04:59:08;102740.78;;;1.85;78.28
58534;BME280;44109;52.398;7.024;2023-01-28T05:01:36;102778.16;;;2.07;78.58
58534;BME280;44109;52.398;7.024;2023-01-28T05:04:03;102785.16;;;1.87;78.59
58534;BME280;44109;52.398;7.024;2023-01-28T05:06:31;102788.69;;;1.88;78.87
58534;BME280;44109;52.398;7.024;2023-01-28T05:08:59;102739.69;;;1.49;78.80
58534;BME280;44109;52.398;7.024;2023-01-28T05:11:27;102760.44;;;2.19;81.04
58534;BME280;44109;52.398;7.024;2023-01-28T05:13:54;102751.25;;;2.41;81.51
58534;BME280;44109;52.398;7.024;2023-01-28T05:16:23;102774.59;;;2.06;77.72
58534;BME280;44109;52.398;7.024;2023-01-28T05:18:51;102775.94;;;2.46;80.37
58534;BME280;44109;52.398;7.024;2023-01-28T05:21:19;102718.91;;;2.38;81.40
58534;BME280;44109;52.398;7.024;2023-01-28T05:23:46;102780.13;;;2.69;80.26
58534;BME280;44109;52.398;7.024;2023-01-28T05:26:14;102774.56;;;2.48;80.46
58534;BME280;44109;52.398;7.024;2023-01-28T05:28:42;102763.59;;;2.48;79.50
58534;BME280;44109;52.398;7.024;2023-01-28T05:31:10;102769.50;;;2.77;82.67
58534;BME280;44109;52.398;7.024;2023-01-28T05:33:39;102773.59;;;2.85;83.85
58534;BME280;44109;52.398;7.024;2023-01-28T05:36:06;102770.06;;;2.90;84.53
58534;BME280;44109;52.398;7.024;2023-01-28T05:38:34;102750.31;;;2.88;83.60
58534;BME280;44109;52.398;7.024;2023-01-28T05:41:02;102747.59;;;2.93;84.06
58534;BME280;44109;52.398;7.024;2023-01-28T05:43:29;102757.97;;;2.80;81.66
58534;BME280;44109;52.398;7.024;2023-01-28T05:45:57;102756.78;;;2.56;76.50
58534;BME280;44109;52.398;7.024;2023-01-28T05:48:25;102757.63;;;2.62;78.02
58534;BME280;44109;52.398;7.024;2023-01-28T05:50:54;102755.78;;;2.77;79.70
58534;BME280;44109;52.398;7.024;2023-01-28T05:53:21;102748.69;;;2.87;82.85
58534;BME280;44109;52.398;7.024;2023-01-28T05:55:50;102742.72;;;2.32;77.35
58534;BME280;44109;52.398;7.024;2023-01-28T05:58:19;102748.84;;;2.54;82.19
58534;BME280;44109;52.398;7.024;2023-01-28T06:00:47;102737.69;;;1.71;77.53
58534;BME280;44109;52.398;7.024;2023-01-28T06:03:15;102744.47;;;2.01;78.29
58534;BME280;44109;52.398;7.024;2023-01-28T06:05:44;102744.38;;;2.33;80.98
58534;BME280;44109;52.398;7.024;2023-01-28T06:08:13;102748.28;;;2.52;82.45
58534;BME280;44109;52.398;7.024;2023-01-28T06:10:41;102743.09;;;2.56;82.73
58534;BME280;44109;52.398;7.024;2023-01-28T06:13:09;102741.94;;;2.42;79.00
58534;BME280;44109;52.398;7.024;2023-01-28T06:15:36;102741.88;;;2.32;81.83
58534;BME280;44109;52.398;7.024;2023-01-28T06:18:04;102753.22;;;2.56;83.79
58534;BME280;44109;52.398;7.024;2023-01-28T06:20:32;102757.63;;;2.62;83.17
58534;BME280;44109;52.398;7.024;2023-01-28T06:22:59;102735.50;;;1.68;78.61
58534;BME280;44109;52.398;7.024;2023-01-28T06:25:29;102766.03;;;1.92;76.79
58534;BME280;44109;52.398;7.024;2023-01-28T06:27:56;102758.81;;;2.18;78.71
58534;BME280;44109;52.398;7.024;2023-01-28T06:30:24;102759.78;;;2.02;77.39
58534;BME280;44109;52.398;7.024;2023-01-28T06:32:54;102759.50;;;1.61;78.40
58534;BME280;44109;52.398;7.024;2023-01-28T06:35:23;102750.38;;;1.83;78.75
58534;BME280;44109;52.398;7.024;2023-01-28T06:37:51;102759.41;;;1.88;78.54
58534;BME280;44109;52.398;7.024;2023-01-28T06:40:20;102760.88;;;2.01;78.80
58534;BME280;44109;52.398;7.024;2023-01-28T06:42:49;102750.38;;;1.83;77.78
58534;BME280;44109;52.398;7.024;2023-01-28T06:45:17;102763.69;;;1.74;80.68
58534;BME280;44109;52.398;7.024;2023-01-28T06:47:44;102757.88;;;1.65;80.21
58534;BME280;44109;52.398;7.024;2023-01-28T06:50:12;102761.81;;;1.80;78.81
58534;BME280;44109;52.398;7.024;2023-01-28T06:52:40;102762.38;;;2.24;81.99
58534;BME280;44109;52.398;7.024;2023-01-28T06:55:08;102736.75;;;1.93;79.14
58534;BME280;44109;52.398;7.024;2023-01-28T06:57:37;102762.44;;;1.87;78.80
58534;BME280;44109;52.398;7.024;2023-01-28T07:00:09;102764.06;;;1.50;80.60
58534;BME280;44109;52.398;7.024;2023-01-28T07:02:40;102774.19;;;1.50;80.96
58534;BME280;44109;52.398;7.024;2023-01-28T07:05:09;102780.63;;;1.71;80.36
58534;BME280;44109;52.398;7.024;2023-01-28T07:07:37;102783.31;;;1.66;81.00
58534;BME280;44109;52.398;7.024;2023-01-28T07:10:06;102800.63;;;1.76;80.29
58534;BME280;44109;52.398;7.024;2023-01-28T07:12:34;102799.13;;;1.91;79.50
58534;BME280;44109;52.398;7.024;2023-01-28T07:15:02;102774.94;;;1.77;78.45
58534;BME280;44109;52.398;7.024;2023-01-28T07:17:31;102781.53;;;2.19;81.41
58534;BME280;44109;52.398;7.024;2023-01-28T07:19:58;102778.03;;;2.28;79.81
58534;BME280;44109;52.398;7.024;2023-01-28T07:22:26;102787.81;;;2.14;77.27
58534;BME280;44109;52.398;7.024;2023-01-28T07:24:54;102790.81;;;2.18;77.96
58534;BME280;44109;52.398;7.024;2023-01-28T07:27:23;102794.34;;;2.13;78.55
58534;BME280;44109;52.398;7.024;2023-01-28T07:29:51;102790.28;;;2.21;78.76
58534;BME280;44109;52.398;7.024;2023-01-28T07:32:19;102790.78;;;2.13;77.83
58534;BME280;44109;52.398;7.024;2023-01-28T07:34:48;102793.97;;;2.37;79.54
58534;BME280;44109;52.398;7.024;2023-01-28T07:37:15;102800.28;;;2.42;80.63
58534;BME280;44109;52.398;7.024;2023-01-28T07:39:43;102792.66;;;2.07;78.79
58534;BME280;44109;52.398;7.024;2023-01-28T07:42:10;102818.81;;;2.30;79.50
58534;BME280;44109;52.398;7.024;2023-01-28T07:44:38;102790.34;;;2.31;79.89
58534;BME280;44109;52.398;7.024;2023-01-28T07:47:06;102818.16;;;2.55;80.15
58534;BME280;44109;52.398;7.024;2023-01-28T07:49:34;102827.00;;;2.72;81.38
58534;BME280;44109;52.398;7.024;2023-01-28T07:52:06;102838.03;;;2.88;83.90
58534;BME280;44109;52.398;7.024;2023-01-28T07:54:34;102774.84;;;2.52;81.91
58534;BME280;44109;52.398;7.024;2023-01-28T07:57:06;102835.34;;;3.03;84.48
58534;BME280;44109;52.398;7.024;2023-01-28T07:59:34;102843.19;;;2.79;78.93
58534;BME280;44109;52.398;7.024;2023-01-28T08:02:02;102842.06;;;2.70;76.74
58534;BME280;44109;52.398;7.024;2023-01-28T08:04:30;102840.44;;;2.74;79.16
58534;BME280;44109;52.398;7.024;2023-01-28T08:06:57;102857.81;;;2.47;76.93
58534;BME280;44109;52.398;7.024;2023-01-28T08:09:27;102826.22;;;2.29;77.00
58534;BME280;44109;52.398;7.024;2023-01-28T08:11:54;102851.03;;;2.55;76.32
58534;BME280;44109;52.398;7.024;2023-01-28T08:14:22;102844.03;;;2.79;78.42
58534;BME280;44109;52.398;7.024;2023-01-28T08:16:49;102849.34;;;3.01;82.77
58534;BME280;44109;52.398;7.024;2023-01-28T08:19:17;102846.34;;;3.13;84.05
58534;BME280;44109;52.398;7.024;2023-01-28T08:21:46;102846.94;;;3.20;84.50
58534;BME280;44109;52.398;7.024;2023-01-28T08:24:14;102824.41;;;3.13;85.46
58534;BME280;44109;52.398;7.024;2023-01-28T08:26:46;102849.69;;;3.36;86.53
58534;BME280;44109;52.398;7.024;2023-01-28T08:29:14;102853.00;;;3.43;87.16
58534;BME280;44109;52.398;7.024;2023-01-28T08:31:42;102858.25;;;3.54;88.08
58534;BME280;44109;52.398;7.024;2023-01-28T08:34:10;102859.63;;;3.62;87.57
58534;BME280;44109;52.398;7.024;2023-01-28T08:36:38;102865.13;;;3.67;88.02
58534;BME280;44109;52.398;7.024;2023-01-28T08:39:05;102857.47;;;3.74;88.29
58534;BME280;44109;52.398;7.024;2023-01-28T08:41:33;102856.63;;;3.74;88.92
58534;BME280;44109;52.398;7.024;2023-01-28T08:44:02;102861.84;;;3.80;88.93
58534;BME280;44109;52.398;7.024;2023-01-28T08:46:30;102861.31;;;3.84;88.22
58534;BME280;44109;52.398;7.024;2023-01-28T08:48:57;102872.28;;;3.84;87.57
58534;BME280;44109;52.398;7.024;2023-01-28T08:51:25;102858.56;;;3.84;86.87
58534;BME280;44109;52.398;7.024;2023-01-28T08:53:52;102856.34;;;3.80;86.10
58534;BME280;44109;52.398;7.024;2023-01-28T08:56:20;102861.84;;;3.75;85.59
58534;BME280;44109;52.398;7.024;2023-01-28T08:58:48;102860.75;;;3.76;85.68
58534;BME280;44109;52.398;7.024;2023-01-28T09:01:17;102858.03;;;3.81;86.75
58534;BME280;44109;52.398;7.024;2023-01-28T09:03:44;102849.22;;;3.59;81.83
58534;BME280;44109;52.398;7.024;2023-01-28T09:06:12;102850.31;;;3.68;83.20
58534;BME280;44109;52.398;7.024;2023-01-28T09:08:40;102848.13;;;3.80;86.97
58534;BME280;44109;52.398;7.024;2023-01-28T09:11:07;102866.25;;;3.97;88.15
58534;BME280;44109;52.398;7.024;2023-01-28T09:13:35;102861.31;;;3.84;84.38
58534;BME280;44109;52.398;7.024;2023-01-28T09:16:03;102873.38;;;3.77;87.31
58534;BME280;44109;52.398;7.024;2023-01-28T09:18:33;102870.31;;;3.43;82.79
58534;BME280;44109;52.398;7.024;2023-01-28T09:21:03;102880.94;;;3.19;80.88
58534;BME280;44109;52.398;7.024;2023-01-28T09:23:33;102859.81;;;3.15;83.17
58534;BME280;44109;52.398;7.024;2023-01-28T09:26:02;102900.78;;;3.57;83.64
58534;BME280;44109;52.398;7.024;2023-01-28T09:28:31;102895.88;;;3.69;84.37
58534;BME280;44109;52.398;7.024;2023-01-28T09:31:01;102888.16;;;3.46;79.54
58534;BME280;44109;52.398;7.024;2023-01-28T09:33:29;102899.69;;;3.53;79.26
58534;BME280;44109;52.398;7.024;2023-01-28T09:36:00;102858.78;;;3.41;81.79
58534;BME280;44109;52.398;7.024;2023-01-28T09:38:29;102888.75;;;3.78;81.90
58534;BME280;44109;52.398;7.024;2023-01-28T09:40:58;102896.47;;;3.81;79.65
58534;BME280;44109;52.398;7.024;2023-01-28T09:43:45;102906.03;;;3.74;78.21
58534;BME280;44109;52.398;7.024;2023-01-28T09:46:31;102842.88;;;3.59;78.69
58534;BME280;44109;52.398;7.024;2023-01-28T09:49:04;102918.44;;;4.43;83.52
58534;BME280;44109;52.398;7.024;2023-01-28T09:51:48;102919.81;;;4.50;82.05
58534;BME280;44109;52.398;7.024;2023-01-28T09:54:26;102922.22;;;4.67;80.47
58534;BME280;44109;52.398;7.024;2023-01-28T09:57:06;102929.31;;;3.51;75.15
58534;BME280;44109;52.398;7.024;2023-01-28T09:59:38;102921.72;;;4.35;87.56
58534;BME280;44109;52.398;7.024;2023-01-28T10:02:31;102926.13;;;4.51;78.73
58534;BME280;44109;52.398;7.024;2023-01-28T10:05:16;102921.66;;;4.80;83.63
58534;BME280;44109;52.398;7.024;2023-01-28T10:07:57;102914.03;;;4.47;76.43
58534;BME280;44109;52.398;7.024;2023-01-28T10:10:39;102917.59;;;4.42;79.92
58534;BME280;44109;52.398;7.024;2023-01-28T10:13:23;102913.22;;;4.26;79.70
58534;BME280;44109;52.398;7.024;2023-01-28T10:16:04;102918.41;;;3.81;76.88
58534;BME280;44109;52.398;7.024;2023-01-28T10:18:43;102906.78;;;3.44;75.85
58534;BME280;44109;52.398;7.024;2023-01-28T10:21:20;102909.97;;;3.15;79.31
58534;BME280;44109;52.398;7.024;2023-01-28T10:23:58;102904.50;;;3.20;81.22
58534;BME280;44109;52.398;7.024;2023-01-28T10:26:33;102909.03;;;3.62;85.22
58534;BME280;44109;52.398;7.024;2023-01-28T10:29:08;102916.56;;;3.14;78.75
58534;BME280;44109;52.398;7.024;2023-01-28T10:31:46;102900.91;;;2.62;78.53
58534;BME280;44109;52.398;7.024;2023-01-28T10:34:18;102899.16;;;2.88;80.78
58534;BME280;44109;52.398;7.024;2023-01-28T10:36:47;102898.03;;;3.47;82.42
58534;BME280;44109;52.398;7.024;2023-01-28T10:39:20;102895.34;;;3.77;80.74
58534;BME280;44109;52.398;7.024;2023-01-28T10:41:50;102889.59;;;4.10;80.68
58534;BME280;44109;52.398;7.024;2023-01-28T10:44:28;102883.50;;;4.64;86.02
58534;BME280;44109;52.398;7.024;2023-01-28T10:47:01;102894.81;;;4.42;78.95
58534;BME280;44109;52.398;7.024;2023-01-28T10:49:41;102887.56;;;4.76;84.19
58534;BME280;44109;52.398;7.024;2023-01-28T10:52:12;102886.25;;;4.64;76.36
58534;BME280;44109;52.398;7.024;2023-01-28T10:54:42;102875.97;;;4.95;80.12
58534;BME280;44109;52.398;7.024;2023-01-28T10:57:12;102867.72;;;4.95;80.58
58534;BME280;44109;52.398;7.024;2023-01-28T10:59:42;102805.88;;;3.87;74.26
58534;BME280;44109;52.398;7.024;2023-01-28T11:02:23;102849.47;;;3.68;76.32
58534;BME280;44109;52.398;7.024;2023-01-28T11:05:01;102861.31;;;4.14;79.49
58534;BME280;44109;52.398;7.024;2023-01-28T11:07:31;102860.16;;;4.36;77.61
58534;BME280;44109;52.398;7.024;2023-01-28T11:10:00;102860.22;;;4.00;73.45
58534;BME280;44109;52.398;7.024;2023-01-28T11:12:29;102843.69;;;3.44;76.32
58534;BME280;44109;52.398;7.024;2023-01-28T11:14:58;102838.25;;;3.90;78.30
58534;BME280;44109;52.398;7.024;2023-01-28T11:17:28;102831.09;;;4.04;76.92
58534;BME280;44109;52.398;7.024;2023-01-28T11:20:08;102799.47;;;4.27;83.15
58534;BME280;44109;52.398;7.024;2023-01-28T11:22:40;102789.91;;;4.04;78.93
58534;BME280;44109;52.398;7.024;2023-01-28T11:25:17;102786.84;;;4.26;81.40
58534;BME280;44109;52.398;7.024;2023-01-28T11:27:51;102780.59;;;4.05;77.59
58534;BME280;44109;52.398;7.024;2023-01-28T11:30:22;102774.50;;;4.13;81.03
58534;BME280;44109;52.398;7.024;2023-01-28T11:32:57;102781.09;;;4.27;82.13
58534;BME280;44109;52.398;7.024;2023-01-28T11:35:31;102767.69;;;3.80;77.56
58534;BME280;44109;52.398;7.024;2023-01-28T11:37:59;102763.56;;;3.67;78.56
58534;BME280;44109;52.398;7.024;2023-01-28T11:40:28;102773.44;;;4.09;79.01
58534;BME280;44109;52.398;7.024;2023-01-28T11:42:56;102773.13;;;4.21;82.32
58534;BME280;44109;52.398;7.024;2023-01-28T11:45:31;102758.50;;;4.46;84.81
58534;BME280;44109;52.398;7.024;2023-01-28T11:51:07;102762.81;;;4.62;82.31
58534;BME280;44109;52.398;7.024;2023-01-28T11:54:06;102767.34;;;4.32;79.20
58534;BME280;44109;52.398;7.024;2023-01-28T11:57:00;102769.91;;;4.78;81.98
58534;BME280;44109;52.398;7.024;2023-01-28T11:59:53;102770.69;;;4.84;78.04
58534;BME280;44109;52.398;7.024;2023-01-28T12:02:47;102769.13;;;5.17;82.48
58534;BME280;44109;52.398;7.024;2023-01-28T12:05:45;102779.38;;;5.06;78.27
58534;BME280;44109;52.398;7.024;2023-01-28T12:08:20;102748.41;;;4.86;80.59
58534;BME280;44109;52.398;7.024;2023-01-28T12:11:18;102790.13;;;4.38;73.54
58534;BME280;44109;52.398;7.024;2023-01-28T12:14:19;102786.34;;;3.93;77.66
58534;BME280;44109;52.398;7.024;2023-01-28T12:17:10;102778.81;;;4.45;76.99
58534;BME280;44109;52.398;7.024;2023-01-28T12:20:03;102783.09;;;4.76;77.84
58534;BME280;44109;52.398;7.024;2023-01-28T12:22:55;102785.72;;;5.02;77.56
58534;BME280;44109;52.398;7.024;2023-01-28T12:25:41;102793.34;;;5.15;77.91
58534;BME280;44109;52.398;7.024;2023-01-28T12:28:29;102781.53;;;5.15;76.49
58534;BME280;44109;52.398;7.024;2023-01-28T12:31:17;102785.16;;;5.10;77.69
58534;BME280;44109;52.398;7.024;2023-01-28T12:34:24;102785.22;;;5.00;77.76
58534;BME280;44109;52.398;7.024;2023-01-28T12:37:19;102776.91;;;4.50;73.81
58534;BME280;44109;52.398;7.024;2023-01-28T12:40:04;102782.66;;;4.59;75.06
58534;BME280;44109;52.398;7.024;2023-01-28T12:42:50;102786.06;;;4.05;74.84
58534;BME280;44109;52.398;7.024;2023-01-28T12:45:23;102785.19;;;4.25;73.72
58534;BME280;44109;52.398;7.024;2023-01-28T12:48:03;102783.47;;;4.54;73.28
58534;BME280;44109;52.398;7.024;2023-01-28T12:50:39;102779.97;;;4.98;77.31
58534;BME280;44109;52.398;7.024;2023-01-28T12:53:21;102784.94;;;5.41;80.80
58534;BME280;44109;52.398;7.024;2023-01-28T12:55:56;102778.91;;;5.73;81.25
58534;BME280;44109;52.398;7.024;2023-01-28T12:58:38;102781.56;;;5.83;77.41
58534;BME280;44109;52.398;7.024;2023-01-28T13:01:14;102772.88;;;5.71;72.72
58534;BME280;44109;52.398;7.024;2023-01-28T13:03:53;102760.78;;;5.67;74.67
58534;BME280;44109;52.398;7.024;2023-01-28T13:06:31;102758.91;;;5.96;75.53
58534;BME280;44109;52.398;7.024;2023-01-28T13:09:12;102742.97;;;5.59;73.09
58534;BME280;44109;52.398;7.024;2023-01-28T13:11:45;102734.47;;;5.84;74.39
58534;BME280;44109;52.398;7.024;2023-01-28T13:14:14;102721.97;;;5.63;71.07
58534;BME280;44109;52.398;7.024;2023-01-28T13:16:43;102720.28;;;5.72;74.78
58534;BME280;44109;52.398;7.024;2023-01-28T13:19:22;102715.84;;;5.71;74.98
58534;BME280;44109;52.398;7.024;2023-01-28T13:21:52;102710.78;;;5.83;73.66
58534;BME280;44109;52.398;7.024;2023-01-28T13:24:23;102703.00;;;5.96;76.09
58534;BME280;44109;52.398;7.024;2023-01-28T13:27:10;102689.53;;;5.60;70.00
58534;BME280;44109;52.398;7.024;2023-01-28T13:29:47;102695.88;;;5.60;72.29
58534;BME280;44109;52.398;7.024;2023-01-28T13:32:30;102698.25;;;5.72;74.08
58534;BME280;44109;52.398;7.024;2023-01-28T13:35:04;102704.44;;;5.59;74.96